sensor_id;sensor_type;location;lat;lon;timestamp;pressure;altitude;pressure_sealevel;temperature;humidity
65013;BME280;51715;39.432;-77.518;2023-01-31T05:05:08;99764.85;;;9.30;43.13
65013;BME280;51715;39.432;-77.518;2023-01-31T05:07:38;99771.35;;;9.50;42.18
65013;BME280;51715;39.432;-77.518;2023-01-31T05:10:08;99777.70;;;9.51;41.63
65013;BME280;51715;39.432;-77.518;2023-01-31T05:12:37;99772.23;;;9.92;40.95
65013;BME280;51715;39.432;-77.518;2023-01-31T05:15:06;99763.62;;;9.74;41.63
65013;BME280;51715;39.432;-77.518;2023-01-31T05:17:34;99761.35;;;9.23;43.09
65013;BME280;51715;39.432;-77.518;2023-01-31T05:20:02;99749.55;;;9.11;43.19
65013;BME280;51715;39.432;-77.518;2023-01-31T05:22:31;99743.11;;;9.22;43.57
65013;BME280;51715;39.432;-77.518;2023-01-31T05:25:00;99750.04;;;9.15;44.07
65013;BME280;51715;39.432;-77.518;2023-01-31T05:27:27;99754.87;;;8.96;44.44
65013;BME280;51715;39.432;-77.518;2023-01-31T05:29:55;99751.11;;;9.16;44.48
65013;BME280;51715;39.432;-77.518;2023-01-31T05:32:35;99739.68;;;8.98;44.14
65013;BME280;51715;39.432;-77.518;2023-01-31T05:35:04;99735.99;;;8.72;43.37
65013;BME280;51715;39.432;-77.518;2023-01-31T05:37:32;99736.90;;;9.19;42.83
65013;BME280;51715;39.432;-77.518;2023-01-31T05:40:01;99752.41;;;9.37;42.25
65013;BME280;51715;39.432;-77.518;2023-01-31T05:42:29;99753.75;;;9.35;41.76
65013;BME280;51715;39.432;-77.518;2023-01-31T05:44:57;99765.96;;;9.43;41.41
65013;BME280;51715;39.432;-77.518;2023-01-31T05:47:25;99770.27;;;9.17;41.44
65013;BME280;51715;39.432;-77.518;2023-01-31T05:49:53;99763.07;;;9.13;41.32
65013;BME280;51715;39.432;-77.518;2023-01-31T05:52:21;99773.54;;;8.82;41.17
65013;BME280;51715;39.432;-77.518;2023-01-31T05:54:49;99773.89;;;9.30;41.40
65013;BME280;51715;39.432;-77.518;2023-01-31T05:57:18;99765.76;;;8.90;41.98
65013;BME280;51715;39.432;-77.518;2023-01-31T05:59:46;99750.02;;;8.69;42.82
65013;BME280;51715;39.432;-77.518;2023-01-31T06:02:13;99730.62;;;8.60;43.20
65013;BME280;51715;39.432;-77.518;2023-01-31T06:04:42;99740.71;;;8.91;45.29
65013;BME280;51715;39.432;-77.518;2023-01-31T06:07:09;99751.91;;;8.89;44.90
65013;BME280;51715;39.432;-77.518;2023-01-31T06:09:37;99741.38;;;8.27;44.19
65013;BME280;51715;39.432;-77.518;2023-01-31T06:12:06;99731.51;;;9.00;43.54
65013;BME280;51715;39.432;-77.518;2023-01-31T06:14:39;99729.76;;;9.30;43.02
65013;BME280;51715;39.432;-77.518;2023-01-31T06:17:07;99736.99;;;9.60;43.08
65013;BME280;51715;39.432;-77.518;2023-01-31T06:19:36;99729.43;;;9.44;44.11
65013;BME280;51715;39.432;-77.518;2023-01-31T06:22:05;99729.12;;;8.96;44.85
65013;BME280;51715;39.432;-77.518;2023-01-31T06:24:34;99751.46;;;9.41;44.65
65013;BME280;51715;39.432;-77.518;2023-01-31T06:27:04;99729.99;;;9.45;44.08
65013;BME280;51715;39.432;-77.518;2023-01-31T06:29:32;99709.07;;;9.73;43.67
65013;BME280;51715;39.432;-77.518;2023-01-31T06:32:01;99719.92;;;9.80;43.79
65013;BME280;51715;39.432;-77.518;2023-01-31T06:34:32;99731.20;;;9.40;45.57
65013;BME280;51715;39.432;-77.518;2023-01-31T06:37:00;99723.20;;;9.64;45.58
65013;BME280;51715;39.432;-77.518;2023-01-31T06:39:28;99737.38;;;9.59;45.29
65013;BME280;51715;39.432;-77.518;2023-01-31T06:41:57;99772.76;;;10.18;44.68
65013;BME280;51715;39.432;-77.518;2023-01-31T06:44:33;99741.52;;;10.10;44.67
65013;BME280;51715;39.432;-77.518;2023-01-31T06:47:02;99745.76;;;9.86;46.25
65013;BME280;51715;39.432;-77.518;2023-01-31T06:49:29;99756.62;;;9.99;45.56
65013;BME280;51715;39.432;-77.518;2023-01-31T06:51:58;99733.99;;;10.16;45.04
65013;BME280;51715;39.432;-77.518;2023-01-31T06:54:26;99734.16;;;9.67;45.96
65013;BME280;51715;39.432;-77.518;2023-01-31T06:56:54;99733.01;;;10.27;45.09
65013;BME280;51715;39.432;-77.518;2023-01-31T06:59:21;99713.66;;;10.57;44.46
65013;BME280;51715;39.432;-77.518;2023-01-31T07:01:50;99712.84;;;10.19;45.26
65013;BME280;51715;39.432;-77.518;2023-01-31T07:04:18;99710.25;;;9.98;45.02
65013;BME280;51715;39.432;-77.518;2023-01-31T07:06:46;99712.44;;;10.47;44.19
65013;BME280;51715;39.432;-77.518;2023-01-31T07:09:14;99723.59;;;10.84;43.49
65013;BME280;51715;39.432;-77.518;2023-01-31T07:11:42;99734.60;;;11.10;42.93
65013;BME280;51715;39.432;-77.518;2023-01-31T07:14:11;99725.71;;;11.32;42.39
65013;BME280;51715;39.432;-77.518;2023-01-31T07:16:39;99729.76;;;11.22;42.09
65013;BME280;51715;39.432;-77.518;2023-01-31T07:19:08;99757.92;;;11.47;41.74
65013;BME280;51715;39.432;-77.518;2023-01-31T07:21:36;99772.92;;;11.36;41.99
65013;BME280;51715;39.432;-77.518;2023-01-31T07:24:06;99760.28;;;10.49;43.75
65013;BME280;51715;39.432;-77.518;2023-01-31T07:26:34;99771.27;;;11.11;42.94
65013;BME280;51715;39.432;-77.518;2023-01-31T07:29:03;99774.79;;;11.14;42.57
65013;BME280;51715;39.432;-77.518;2023-01-31T07:31:36;99796.36;;;11.71;42.05
65013;BME280;51715;39.432;-77.518;2023-01-31T07:34:04;99785.16;;;11.46;41.81
65013;BME280;51715;39.432;-77.518;2023-01-31T07:37:03;99797.40;;;12.07;41.44
65013;BME280;51715;39.432;-77.518;2023-01-31T07:39:34;99784.81;;;11.72;41.64
65013;BME280;51715;39.432;-77.518;2023-01-31T07:42:02;99776.63;;;11.69;41.47
65013;BME280;51715;39.432;-77.518;2023-01-31T07:44:45;99773.96;;;11.78;41.56
65013;BME280;51715;39.432;-77.518;2023-01-31T07:47:13;99774.24;;;11.87;41.31
65013;BME280;51715;39.432;-77.518;2023-01-31T07:49:41;99797.02;;;11.46;42.43
65013;BME280;51715;39.432;-77.518;2023-01-31T07:52:09;99802.37;;;11.03;43.26
65013;BME280;51715;39.432;-77.518;2023-01-31T07:54:45;99799.39;;;11.11;42.94
65013;BME280;51715;39.432;-77.518;2023-01-31T07:57:14;99788.94;;;11.15;42.82
65013;BME280;51715;39.432;-77.518;2023-01-31T07:59:43;99799.01;;;9.98;44.55
65013;BME280;51715;39.432;-77.518;2023-01-31T08:02:13;99829.38;;;10.90;43.13
65013;BME280;51715;39.432;-77.518;2023-01-31T08:04:41;99812.37;;;11.50;42.73
65013;BME280;51715;39.432;-77.518;2023-01-31T08:07:11;99837.63;;;11.04;42.84
65013;BME280;51715;39.432;-77.518;2023-01-31T08:09:40;99826.79;;;10.58;42.74
65013;BME280;51715;39.432;-77.518;2023-01-31T08:12:08;99822.43;;;11.19;42.19
65013;BME280;51715;39.432;-77.518;2023-01-31T08:14:44;99820.42;;;11.47;41.92
65013;BME280;51715;39.432;-77.518;2023-01-31T08:17:13;99844.23;;;11.58;40.87
65013;BME280;51715;39.432;-77.518;2023-01-31T08:19:41;99838.18;;;12.11;40.41
65013;BME280;51715;39.432;-77.518;2023-01-31T08:48:20;99865.10;;;10.97;40.85
65013;BME280;51715;39.432;-77.518;2023-01-31T08:51:00;99851.76;;;9.07;40.06
65013;BME280;51715;39.432;-77.518;2023-01-31T08:53:53;99865.52;;;9.20;40.10
65013;BME280;51715;39.432;-77.518;2023-01-31T21:21:53;100178.61;;;8.44;28.81
65013;BME280;51715;39.432;-77.518;2023-01-31T21:26:10;100172.81;;;8.82;27.68
65013;BME280;51715;39.432;-77.518;2023-01-31T21:31:28;100172.76;;;8.94;27.84
65013;BME280;51715;39.432;-77.518;2023-01-31T22:18:31;100170.25;;;6.13;37.57
65013;BME280;51715;39.432;-77.518;2023-01-31T22:21:05;100181.20;;;4.93;37.69
65013;BME280;51715;39.432;-77.518;2023-01-31T22:23:46;100173.71;;;4.18;39.08
65013;BME280;51715;39.432;-77.518;2023-01-31T22:26:18;100164.88;;;4.80;36.81
65013;BME280;51715;39.432;-77.518;2023-01-31T22:28:55;100165.36;;;5.11;40.01
65013;BME280;51715;39.432;-77.518;2023-01-31T22:31:24;100180.18;;;5.09;39.31
65013;BME280;51715;39.432;-77.518;2023-01-31T22:33:52;100164.40;;;5.50;38.30
65013;BME280;51715;39.432;-77.518;2023-01-31T22:36:21;100164.43;;;6.07;37.62
65013;BME280;51715;39.432;-77.518;2023-01-31T22:38:52;100180.70;;;5.93;37.59
65013;BME280;51715;39.432;-77.518;2023-01-31T22:41:21;100183.38;;;6.31;37.36
65013;BME280;51715;39.432;-77.518;2023-01-31T22:43:51;100182.18;;;6.19;38.03
65013;BME280;51715;39.432;-77.518;2023-01-31T22:46:21;100184.40;;;6.38;37.44
65013;BME280;51715;39.432;-77.518;2023-01-31T22:48:50;100189.31;;;6.55;37.02
65013;BME280;51715;39.432;-77.518;2023-01-31T22:51:21;100197.33;;;6.43;37.14
65013;BME280;51715;39.432;-77.518;2023-01-31T22:53:52;100187.95;;;6.24;37.41
65013;BME280;51715;39.432;-77.518;2023-01-31T22:56:23;100182.66;;;6.37;38.14
65013;BME280;51715;39.432;-77.518;2023-01-31T22:58:55;100171.10;;;6.07;38.02
65013;BME280;51715;39.432;-77.518;2023-01-31T23:01:26;100184.24;;;5.47;38.50
65013;BME280;51715;39.432;-77.518;2023-01-31T23:03:56;100181.47;;;6.00;37.80
65013;BME280;51715;39.432;-77.518;2023-01-31T23:06:26;100188.68;;;5.44;38.89
65013;BME280;51715;39.432;-77.518;2023-01-31T23:08:55;100176.35;;;5.69;38.33
65013;BME280;51715;39.432;-77.518;2023-01-31T23:11:23;100165.18;;;4.39;40.46
65013;BME280;51715;39.432;-77.518;2023-01-31T23:13:52;100180.76;;;4.19;41.15
65013;BME280;51715;39.432;-77.518;2023-01-31T23:16:22;100195.55;;;4.00;41.56
65013;BME280;51715;39.432;-77.518;2023-01-31T23:18:52;100202.13;;;2.77;44.39
65013;BME280;51715;39.432;-77.518;2023-01-31T23:21:20;100182.15;;;3.23;42.51
65013;BME280;51715;39.432;-77.518;2023-01-31T23:23:48;100177.54;;;4.05;41.25
65013;BME280;51715;39.432;-77.518;2023-01-31T23:26:16;100170.53;;;4.64;40.62
65013;BME280;51715;39.432;-77.518;2023-01-31T23:28:45;100178.19;;;5.39;38.96
65013;BME280;51715;39.432;-77.518;2023-01-31T23:31:13;100175.00;;;5.32;38.14
65013;BME280;51715;39.432;-77.518;2023-01-31T23:33:41;100191.21;;;5.40;37.39
65013;BME280;51715;39.432;-77.518;2023-01-31T23:36:09;100185.04;;;4.96;38.88
65013;BME280;51715;39.432;-77.518;2023-01-31T23:38:41;100179.32;;;4.10;39.12
65013;BME280;51715;39.432;-77.518;2023-01-31T23:41:09;100185.68;;;4.12;38.78
65013;BME280;51715;39.432;-77.518;2023-01-31T23:43:38;100206.17;;;4.50;39.35
65013;BME280;51715;39.432;-77.518;2023-01-31T23:46:07;100212.65;;;5.23;37.55
65013;BME280;51715;39.432;-77.518;2023-01-31T23:48:35;100232.55;;;5.70;36.42
65013;BME280;51715;39.432;-77.518;2023-01-31T23:51:04;100239.13;;;5.33;36.73
65013;BME280;51715;39.432;-77.518;2023-01-31T23:53:38;100250.42;;;6.12;36.13
65013;BME280;51715;39.432;-77.518;2023-01-31T23:56:07;100267.37;;;5.94;35.55
65013;BME280;51715;39.432;-77.518;2023-01-31T23:58:35;100280.65;;;6.19;35.00
